createdAt,value
2024-04-10T00:00:01.347Z,111.87
2024-04-10T00:01:06.783Z,111.38
2024-04-10T00:02:01.410Z,111.83
2024-04-10T00:03:01.719Z,110.72
2024-04-10T00:04:22.557Z,110.82
2024-04-10T00:05:01.829Z,111.86
2024-04-10T00:06:01.554Z,111.90
2024-04-10T00:07:01.446Z,111.96
2024-04-10T00:08:01.546Z,111.87
2024-04-10T00:09:01.465Z,111.61
2024-04-10T00:10:01.501Z,111.42
2024-04-10T00:11:01.521Z,110.96
2024-04-10T00:12:01.849Z,110.65
2024-04-10T00:13:01.455Z,110.21
2024-04-10T00:14:01.595Z,109.89
2024-04-10T00:15:01.465Z,109.05
2024-04-10T00:16:01.471Z,109.31
2024-04-10T00:17:01.535Z,108.92
2024-04-10T00:18:01.558Z,108.67
2024-04-10T00:19:01.704Z,108.08
2024-04-10T00:20:01.568Z,108.68
2024-04-10T00:21:01.469Z,108.97
2024-04-10T00:22:01.465Z,107.82
2024-04-10T00:23:01.495Z,107.82
2024-04-10T00:24:01.491Z,107.61
2024-04-10T00:25:01.482Z,106.88
2024-04-10T00:26:16.295Z,106.43
2024-04-10T00:27:01.486Z,106.48
2024-04-10T00:28:01.479Z,106.64
2024-04-10T00:29:19.815Z,106.78
2024-04-10T00:30:01.489Z,106.50
2024-04-10T00:31:01.502Z,106.82
2024-04-10T00:32:01.519Z,107.31
2024-04-10T00:33:01.523Z,107.97
2024-04-10T00:34:01.590Z,108.13
2024-04-10T00:35:01.517Z,108.00
2024-04-10T00:36:01.546Z,107.47
2024-04-10T00:37:01.507Z,106.76
2024-04-10T00:38:01.554Z,105.56
2024-04-10T00:39:01.499Z,105.57
2024-04-10T00:40:01.504Z,104.82
2024-04-10T00:41:01.544Z,104.95
2024-04-10T00:42:01.515Z,104.93
2024-04-10T00:43:01.522Z,104.83
2024-04-10T00:44:01.625Z,103.96
2024-04-10T00:45:01.518Z,104.06
2024-04-10T00:46:01.520Z,103.26
2024-04-10T00:47:01.671Z,102.12
2024-04-10T00:48:08.312Z,102.61
2024-04-10T00:49:01.675Z,102.62
2024-04-10T00:50:01.572Z,102.53
2024-04-10T00:51:12.239Z,101.88
2024-04-10T00:52:01.532Z,102.62
2024-04-10T00:53:01.564Z,102.15
2024-04-10T00:54:22.546Z,101.78
2024-04-10T00:55:01.549Z,102.64
2024-04-10T00:56:01.579Z,102.62
2024-04-10T00:57:22.552Z,102.59
2024-04-10T00:58:01.552Z,102.66
2024-04-10T00:59:01.584Z,102.77
2024-04-10T01:00:01.570Z,102.73
2024-04-10T01:01:01.596Z,102.49
2024-04-10T01:02:01.621Z,101.23
2024-04-10T01:03:01.570Z,100.91
2024-04-10T01:04:01.704Z,100.39
2024-04-10T01:05:01.689Z,100.07
2024-04-10T01:06:01.566Z,99.94
2024-04-10T01:07:01.561Z,98.90
2024-04-10T01:08:01.581Z,99.02
2024-04-10T01:09:01.562Z,98.82
2024-04-10T01:10:01.564Z,98.24
2024-04-10T01:11:01.744Z,97.96
2024-04-10T01:12:01.616Z,98.02
2024-04-10T01:13:04.245Z,97.66
2024-04-10T01:14:01.700Z,97.66
2024-04-10T01:15:01.571Z,97.45
2024-04-10T01:16:15.771Z,96.50
2024-04-10T01:17:01.937Z,97.68
2024-04-10T01:18:01.821Z,97.46
2024-04-10T01:19:22.770Z,96.73
2024-04-10T01:20:01.799Z,97.69
2024-04-10T01:21:01.777Z,97.69
2024-04-10T01:22:01.775Z,97.20
2024-04-10T01:23:01.798Z,96.08
2024-04-10T01:24:01.762Z,95.71
2024-04-10T01:25:01.780Z,94.96
2024-04-10T01:26:01.833Z,95.48
2024-04-10T01:27:01.788Z,94.87
2024-04-10T01:28:01.784Z,94.85
2024-04-10T01:29:01.819Z,94.38
2024-04-10T01:30:01.814Z,94.24
2024-04-10T01:31:01.805Z,93.74
2024-04-10T01:32:01.802Z,93.49
2024-04-10T01:33:01.933Z,93.14
2024-04-10T01:34:01.876Z,93.35
2024-04-10T01:35:01.878Z,93.15
2024-04-10T01:36:01.799Z,93.22
2024-04-10T01:37:01.815Z,93.02
2024-04-10T01:38:01.824Z,92.97
2024-04-10T01:39:01.809Z,92.67
2024-04-10T01:40:01.848Z,92.09
2024-04-10T01:41:02.830Z,91.98
2024-04-10T01:42:01.823Z,91.88
2024-04-10T01:43:01.813Z,92.05
2024-04-10T01:44:02.797Z,91.40
2024-04-10T01:45:01.821Z,91.31
2024-04-10T01:46:01.831Z,91.37
2024-04-10T01:47:09.863Z,91.10
2024-04-10T01:48:02.059Z,91.14
2024-04-10T01:49:01.943Z,91.29
2024-04-10T01:50:33.426Z,91.36
2024-04-10T01:51:01.851Z,91.15
2024-04-10T01:52:01.849Z,91.50
2024-04-10T01:53:01.884Z,92.22
2024-04-10T01:54:01.843Z,92.96
2024-04-10T01:55:01.864Z,93.60
2024-04-10T01:56:01.907Z,94.26
2024-04-10T01:57:01.873Z,94.05
2024-04-10T01:58:01.854Z,94.06
2024-04-10T01:59:01.904Z,93.53
2024-04-10T02:00:01.860Z,93.10
2024-04-10T02:01:01.947Z,92.57
2024-04-10T02:02:01.908Z,92.30
2024-04-10T02:03:01.884Z,91.67
2024-04-10T02:04:02.059Z,91.52
2024-04-10T02:05:01.975Z,90.85
2024-04-10T02:06:02.775Z,90.89
2024-04-10T02:07:02.065Z,90.41
2024-04-10T02:08:02.186Z,90.08
2024-04-10T02:09:16.766Z,89.77
2024-04-10T02:10:02.424Z,89.82
2024-04-10T02:11:02.552Z,90.01
2024-04-10T02:12:05.360Z,90.32
2024-04-10T02:13:02.491Z,90.71
2024-04-10T02:14:02.498Z,90.59
2024-04-10T02:15:38.271Z,90.51
2024-04-10T02:16:02.524Z,90.54
2024-04-10T02:17:02.624Z,90.91
2024-04-10T02:18:02.694Z,91.40
2024-04-10T02:19:02.495Z,92.07
2024-04-10T02:20:02.561Z,92.63
2024-04-10T02:21:05.040Z,93.27
2024-04-10T02:22:02.502Z,93.23
2024-04-10T02:23:02.577Z,93.06
2024-04-10T02:24:02.534Z,92.90
2024-04-10T02:25:02.524Z,93.01
2024-04-10T02:26:02.565Z,92.48
2024-04-10T02:27:02.517Z,92.46
2024-04-10T02:28:02.518Z,92.07
2024-04-10T02:29:02.602Z,91.76
2024-04-10T02:30:02.559Z,91.53
2024-04-10T02:31:02.534Z,90.99
2024-04-10T02:32:02.597Z,91.11
2024-04-10T02:33:02.695Z,90.83
2024-04-10T02:34:17.400Z,90.17
2024-04-10T02:35:02.665Z,90.22
2024-04-10T02:36:02.544Z,90.49
2024-04-10T02:37:12.624Z,90.60
2024-04-10T02:38:02.582Z,90.26
2024-04-10T02:39:02.545Z,90.51
2024-04-10T02:40:26.286Z,90.80
2024-04-10T02:41:02.598Z,90.24
2024-04-10T02:42:02.555Z,90.58
2024-04-10T02:43:33.842Z,91.19
2024-04-10T02:44:02.583Z,90.24
2024-04-10T02:45:02.560Z,90.73
2024-04-10T02:46:02.646Z,91.47
2024-04-10T02:47:02.595Z,92.27
2024-04-10T02:48:02.572Z,93.69
2024-04-10T02:49:02.564Z,93.83
2024-04-10T02:50:02.620Z,93.23
2024-04-10T02:51:02.581Z,93.24
2024-04-10T02:52:02.574Z,92.62
2024-04-10T02:53:02.674Z,92.38
2024-04-10T02:54:02.581Z,92.17
2024-04-10T02:55:02.579Z,92.78
2024-04-10T02:56:02.609Z,92.39
2024-04-10T02:57:02.599Z,91.51
2024-04-10T02:58:02.595Z,91.16
2024-04-10T02:59:09.336Z,90.94
2024-04-10T03:00:02.591Z,90.95
2024-04-10T03:01:02.642Z,90.98
2024-04-10T03:02:02.651Z,91.00
2024-04-10T03:03:02.635Z,91.42
2024-04-10T03:04:02.679Z,91.42
2024-04-10T03:05:02.719Z,90.85
2024-04-10T03:06:02.613Z,91.20
2024-04-10T03:07:02.601Z,91.12
2024-04-10T03:08:17.360Z,91.06
2024-04-10T03:09:02.597Z,91.10
2024-04-10T03:10:02.624Z,91.19
2024-04-10T03:11:02.775Z,91.50
2024-04-10T03:12:02.712Z,91.47
2024-04-10T03:13:02.599Z,90.97
2024-04-10T03:14:02.665Z,91.28
2024-04-10T03:15:02.608Z,91.35
2024-04-10T03:16:02.607Z,90.61
2024-04-10T03:17:02.791Z,90.33
2024-04-10T03:18:03.409Z,89.88
2024-04-10T03:19:02.607Z,90.38
2024-04-10T03:20:02.721Z,89.96
2024-04-10T03:21:02.612Z,89.85
2024-04-10T03:22:02.607Z,89.89
2024-04-10T03:23:02.722Z,90.38
2024-04-10T03:24:09.928Z,90.09
2024-04-10T03:25:02.624Z,90.12
2024-04-10T03:26:02.704Z,90.17
2024-04-10T03:27:09.307Z,90.29
2024-04-10T03:28:02.623Z,90.14
2024-04-10T03:29:02.702Z,90.25
2024-04-10T03:30:17.336Z,90.36
2024-04-10T03:31:02.628Z,90.14
2024-04-10T03:32:02.711Z,90.33
2024-04-10T03:33:02.722Z,90.60
2024-04-10T03:34:02.812Z,90.89
2024-04-10T03:35:02.737Z,91.22
2024-04-10T03:36:28.807Z,90.45
2024-04-10T03:37:02.644Z,90.51
2024-04-10T03:38:02.712Z,90.82
2024-04-10T03:39:02.654Z,91.08
2024-04-10T03:40:02.674Z,91.45
2024-04-10T03:41:02.715Z,91.84
2024-04-10T03:42:02.666Z,91.03
2024-04-10T03:43:02.669Z,90.71
2024-04-10T03:44:02.754Z,91.60
2024-04-10T03:45:02.782Z,90.93
2024-04-10T03:46:02.863Z,90.96
2024-04-10T03:47:03.025Z,90.83
2024-04-10T03:48:03.197Z,90.59
2024-04-10T03:49:03.133Z,90.95
2024-04-10T03:50:03.179Z,91.05
2024-04-10T03:51:03.222Z,90.55
2024-04-10T03:52:10.319Z,89.75
2024-04-10T03:53:03.306Z,89.78
2024-04-10T03:54:03.283Z,89.83
2024-04-10T03:55:09.808Z,90.01
2024-04-10T03:56:03.403Z,89.79
2024-04-10T03:57:03.286Z,89.99
2024-04-10T03:58:03.820Z,90.10
2024-04-10T03:59:03.361Z,90.71
2024-04-10T04:00:03.289Z,91.10
2024-04-10T04:01:17.875Z,91.01
2024-04-10T04:02:03.639Z,91.05
2024-04-10T04:03:03.723Z,91.21
2024-04-10T04:04:03.687Z,91.49
2024-04-10T04:05:03.717Z,91.68
2024-04-10T04:06:03.737Z,92.29
2024-04-10T04:07:03.806Z,91.31
2024-04-10T04:08:03.873Z,90.92
2024-04-10T04:09:03.943Z,91.56
2024-04-10T04:10:03.953Z,91.94
2024-04-10T04:11:04.097Z,91.51
2024-04-10T04:12:04.465Z,91.65
2024-04-10T04:13:04.092Z,91.74
2024-04-10T04:14:04.196Z,91.60
2024-04-10T04:15:04.192Z,90.92
2024-04-10T04:16:04.319Z,91.31
2024-04-10T04:17:04.376Z,91.39
2024-04-10T04:18:04.432Z,91.46
2024-04-10T04:19:11.560Z,50.00
2024-04-10T04:20:14.246Z,50.00
2024-04-10T04:21:11.571Z,50.00
2024-04-10T04:22:11.575Z,50.00
2024-04-10T04:23:11.612Z,50.00
2024-04-10T04:24:11.571Z,50.00
2024-04-10T04:25:11.571Z,50.00
2024-04-10T04:26:26.210Z,50.64
2024-04-10T04:27:11.867Z,50.80
2024-04-10T04:28:11.891Z,51.07
2024-04-10T04:29:12.050Z,51.82
2024-04-10T04:30:12.020Z,52.12
2024-04-10T04:31:19.201Z,50.00
2024-04-10T04:32:42.936Z,50.00
2024-04-10T04:33:19.355Z,50.00
2024-04-10T04:34:19.265Z,50.00
2024-04-10T04:35:34.099Z,50.00
2024-04-10T04:36:19.218Z,50.00
2024-04-10T04:37:19.220Z,50.00
2024-04-10T04:38:19.258Z,50.00
2024-04-10T04:39:19.214Z,50.00
2024-04-10T04:40:19.217Z,50.00
2024-04-10T04:41:19.322Z,50.00
2024-04-10T04:42:19.231Z,51.13
2024-04-10T04:43:19.230Z,52.00
2024-04-10T04:45:19.247Z,51.48
2024-04-10T04:46:19.350Z,53.33
2024-04-10T04:47:19.334Z,52.18
2024-04-10T04:48:19.390Z,52.93
2024-04-10T04:49:19.239Z,52.67
2024-04-10T04:50:19.272Z,54.18
2024-04-10T04:51:19.251Z,53.91
2024-04-10T04:52:19.245Z,54.71
2024-04-10T04:53:19.288Z,53.74
2024-04-10T04:54:33.806Z,54.95
2024-04-10T04:55:19.426Z,55.07
2024-04-10T04:56:19.524Z,55.59
2024-04-10T04:57:43.306Z,56.13
2024-04-10T04:58:19.559Z,55.13
2024-04-10T04:59:19.590Z,56.07
2024-04-10T05:00:19.569Z,58.03
2024-04-10T05:01:19.579Z,60.32
2024-04-10T05:02:19.627Z,63.95
2024-04-10T05:03:19.762Z,65.20
2024-04-10T05:04:19.660Z,64.60
2024-04-10T05:05:19.617Z,66.96
2024-04-10T05:06:21.337Z,66.65
2024-04-10T05:07:19.578Z,65.66
2024-04-10T05:08:19.620Z,66.79
2024-04-10T05:09:19.577Z,68.19
2024-04-10T05:10:19.582Z,69.78
2024-04-10T05:11:19.776Z,68.34
2024-04-10T05:12:19.662Z,70.12
2024-04-10T05:13:19.583Z,70.99
2024-04-10T05:14:19.672Z,72.41
2024-04-10T05:15:19.589Z,72.67
2024-04-10T05:16:19.686Z,72.99
2024-04-10T05:17:19.751Z,73.71
2024-04-10T05:18:19.794Z,73.97
2024-04-10T05:19:19.814Z,74.75
2024-04-10T05:20:19.928Z,73.38
2024-04-10T05:21:19.937Z,74.45
2024-04-10T05:22:23.325Z,73.55
2024-04-10T05:23:20.082Z,74.93
2024-04-10T05:24:20.024Z,74.48
2024-04-10T05:25:41.023Z,75.15
2024-04-10T05:26:20.369Z,75.32
2024-04-10T05:27:20.022Z,76.00
2024-04-10T05:28:20.031Z,77.63
2024-04-10T05:29:20.076Z,80.68
2024-04-10T05:30:20.025Z,83.99
2024-04-10T05:31:20.329Z,87.11
2024-04-10T05:32:20.066Z,86.98
2024-04-10T05:33:20.226Z,92.04
2024-04-10T05:34:20.080Z,96.70
2024-04-10T05:35:20.137Z,102.79
2024-04-10T05:36:20.329Z,108.26
2024-04-10T05:37:20.366Z,115.75
2024-04-10T05:38:20.092Z,125.38
2024-04-10T05:39:20.042Z,133.50
2024-04-10T05:40:20.114Z,141.75
2024-04-10T05:41:21.868Z,149.65
2024-04-10T05:42:20.335Z,159.01
2024-04-10T05:43:20.056Z,164.62
2024-04-10T05:44:20.079Z,169.15
2024-04-10T05:45:20.079Z,177.81
2024-04-10T05:46:20.081Z,185.17
2024-04-10T05:47:41.434Z,188.02
2024-04-10T05:48:20.344Z,188.21
2024-04-10T05:49:20.268Z,189.39
2024-04-10T05:50:43.897Z,188.55
2024-04-10T05:51:20.249Z,188.38
2024-04-10T05:52:20.235Z,190.51
2024-04-10T05:53:55.834Z,193.54
2024-04-10T05:54:20.227Z,188.21
2024-04-10T05:55:20.092Z,190.39
2024-04-10T05:56:20.128Z,193.34
2024-04-10T05:57:20.105Z,197.07
2024-04-10T05:58:20.090Z,200.33
2024-04-10T05:59:20.138Z,199.20
2024-04-10T06:00:20.112Z,197.76
2024-04-10T06:01:20.151Z,194.87
2024-04-10T06:02:20.166Z,193.66
2024-04-10T06:03:20.288Z,195.00
2024-04-10T06:04:20.153Z,196.96
2024-04-10T06:05:20.244Z,197.16
2024-04-10T06:06:20.107Z,196.27
2024-04-10T06:07:20.105Z,197.00
2024-04-10T06:08:20.179Z,195.90
2024-04-10T06:09:20.107Z,194.58
2024-04-10T06:10:20.106Z,193.39
2024-04-10T06:11:20.155Z,190.56
2024-04-10T06:12:36.419Z,189.27
2024-04-10T06:13:20.133Z,189.43
2024-04-10T06:14:20.143Z,189.94
2024-04-10T06:15:27.341Z,190.88
2024-04-10T06:16:20.184Z,189.48
2024-04-10T06:17:20.184Z,190.01
2024-04-10T06:18:51.344Z,190.73
2024-04-10T06:19:20.153Z,189.44
2024-04-10T06:20:20.315Z,190.58
2024-04-10T06:21:20.150Z,191.86
2024-04-10T06:22:23.292Z,193.60
2024-04-10T06:23:20.313Z,189.53
2024-04-10T06:24:20.156Z,190.03
2024-04-10T06:25:20.158Z,190.84
2024-04-10T06:26:20.201Z,191.10
2024-04-10T06:27:20.157Z,189.61
2024-04-10T06:28:20.157Z,187.84
2024-04-10T06:29:20.210Z,185.89
2024-04-10T06:30:20.156Z,192.87
2024-04-10T06:31:20.165Z,194.55
2024-04-10T06:32:20.477Z,196.66
2024-04-10T06:33:20.461Z,199.45
2024-04-10T06:34:20.232Z,198.27
2024-04-10T06:35:20.222Z,195.08
2024-04-10T06:36:20.171Z,190.59
2024-04-10T06:37:20.168Z,187.95
2024-04-10T06:38:20.383Z,194.63
2024-04-10T06:39:20.171Z,199.47
2024-04-10T06:40:34.850Z,198.33
2024-04-10T06:41:20.245Z,198.52
2024-04-10T06:42:20.181Z,199.45
2024-04-10T06:43:26.854Z,201.64
2024-04-10T06:44:20.191Z,198.84
2024-04-10T06:45:20.174Z,199.96
2024-04-10T06:46:55.459Z,202.11
2024-04-10T06:47:20.336Z,198.61
2024-04-10T06:48:20.370Z,201.94
2024-04-10T06:49:20.315Z,209.48
2024-04-10T06:50:20.242Z,223.64
2024-04-10T06:51:20.195Z,239.71
2024-04-10T06:52:20.183Z,237.09
2024-04-10T06:53:20.332Z,216.81
2024-04-10T06:54:21.465Z,200.00
2024-04-10T06:55:20.192Z,197.52
2024-04-10T06:56:20.227Z,194.37
2024-04-10T06:57:20.197Z,194.64
2024-04-10T06:58:20.209Z,190.52
2024-04-10T06:59:20.298Z,188.29
2024-04-10T07:00:20.301Z,185.48
2024-04-10T07:01:20.375Z,181.36
2024-04-10T07:02:20.314Z,179.38
2024-04-10T07:03:20.328Z,173.29
2024-04-10T07:04:20.373Z,172.90
2024-04-10T07:05:23.504Z,169.49
2024-04-10T07:06:20.391Z,168.68
2024-04-10T07:07:20.392Z,168.74
2024-04-10T07:08:44.517Z,168.04
2024-04-10T07:09:20.395Z,168.20
2024-04-10T07:10:20.410Z,168.77
2024-04-10T07:11:34.963Z,168.98
2024-04-10T07:12:20.785Z,168.33
2024-04-10T07:13:20.632Z,169.17
2024-04-10T07:14:20.726Z,172.08
2024-04-10T07:15:20.646Z,174.52
2024-04-10T07:16:20.716Z,180.11
2024-04-10T07:17:20.852Z,179.49
2024-04-10T07:18:20.765Z,181.46
2024-04-10T07:19:20.782Z,182.15
2024-04-10T07:20:20.769Z,182.99
2024-04-10T07:21:20.748Z,184.45
2024-04-10T07:22:20.765Z,185.20
2024-04-10T07:23:20.818Z,185.00
2024-04-10T07:24:20.797Z,183.23
2024-04-10T07:25:20.818Z,183.40
2024-04-10T07:26:20.905Z,182.59
2024-04-10T07:27:20.867Z,181.80
2024-04-10T07:28:20.886Z,183.82
2024-04-10T07:29:21.015Z,184.76
2024-04-10T07:30:30.741Z,184.56
2024-04-10T07:31:20.945Z,184.57
2024-04-10T07:32:21.028Z,184.59
2024-04-10T07:33:22.014Z,177.82
2024-04-10T07:34:21.036Z,170.86
2024-04-10T07:35:21.032Z,165.53
2024-04-10T07:36:27.884Z,156.45
2024-04-10T07:37:20.967Z,153.13
2024-04-10T07:38:20.994Z,146.28
2024-04-10T07:39:44.876Z,139.01
2024-04-10T07:40:20.984Z,146.59
2024-04-10T07:41:21.017Z,140.36
2024-04-10T07:42:21.010Z,133.34
2024-04-10T07:43:20.987Z,129.51
2024-04-10T07:44:21.032Z,125.73
2024-04-10T07:45:20.992Z,123.77
2024-04-10T07:46:21.003Z,121.10
2024-04-10T07:47:21.114Z,118.82
2024-04-10T07:48:21.152Z,115.84
2024-04-10T07:49:21.077Z,112.54
2024-04-10T07:50:21.023Z,109.81
2024-04-10T07:51:20.999Z,105.91
2024-04-10T07:52:20.997Z,106.92
2024-04-10T07:53:21.080Z,101.89
2024-04-10T07:54:21.005Z,99.50
2024-04-10T07:55:23.886Z,97.94
2024-04-10T07:56:21.031Z,96.55
2024-04-10T07:57:21.010Z,93.45
2024-04-10T07:58:21.038Z,92.38
2024-04-10T07:59:21.043Z,91.60
2024-04-10T08:00:21.019Z,88.34
2024-04-10T08:01:24.456Z,85.87
2024-04-10T08:02:21.111Z,85.88
2024-04-10T08:03:21.180Z,85.90
2024-04-10T08:04:40.410Z,85.88
2024-04-10T08:05:21.058Z,85.99
2024-04-10T08:06:21.043Z,86.53
2024-04-10T08:07:21.033Z,87.19
2024-04-10T08:08:21.112Z,88.43
2024-04-10T08:09:21.027Z,89.71
2024-04-10T08:10:21.034Z,90.08
2024-04-10T08:11:21.502Z,90.92
2024-04-10T08:12:21.196Z,93.71
2024-04-10T08:13:21.040Z,95.99
2024-04-10T08:14:21.126Z,98.03
2024-04-10T08:15:21.055Z,101.04
2024-04-10T08:16:21.098Z,101.20
2024-04-10T08:17:21.076Z,104.33
2024-04-10T08:18:21.111Z,107.17
2024-04-10T08:19:21.077Z,107.82
2024-04-10T08:20:21.081Z,108.31
2024-04-10T08:21:21.065Z,109.64
2024-04-10T08:22:21.060Z,112.53
2024-04-10T08:23:24.137Z,114.59
2024-04-10T08:24:21.063Z,119.00
2024-04-10T08:25:21.062Z,121.85
2024-04-10T08:26:21.452Z,124.98
2024-04-10T08:27:21.062Z,130.09
2024-04-10T08:28:21.077Z,130.47
2024-04-10T08:29:36.473Z,136.42
2024-04-10T08:30:21.070Z,136.63
2024-04-10T08:31:21.089Z,137.42
2024-04-10T08:32:36.143Z,139.63
2024-04-10T08:33:21.157Z,136.79
2024-04-10T08:34:21.160Z,138.45
2024-04-10T08:35:21.236Z,141.62
2024-04-10T08:36:21.120Z,145.48
2024-04-10T08:37:21.095Z,152.59
2024-04-10T08:38:21.146Z,153.53
2024-04-10T08:39:21.091Z,152.54
2024-04-10T08:40:21.160Z,153.78
2024-04-10T08:41:21.090Z,153.05
2024-04-10T08:42:21.099Z,153.59
2024-04-10T08:43:21.140Z,149.99
2024-04-10T08:44:21.100Z,150.62
2024-04-10T08:45:21.100Z,148.99
2024-04-10T08:46:21.102Z,148.61
2024-04-10T08:47:21.151Z,151.97
2024-04-10T08:48:24.104Z,154.21
2024-04-10T08:49:21.095Z,154.43
2024-04-10T08:50:21.108Z,155.24
2024-04-10T08:51:28.929Z,156.02
2024-04-10T08:52:21.100Z,154.47
2024-04-10T08:53:21.100Z,155.56
2024-04-10T08:54:27.932Z,158.24
2024-04-10T08:55:21.100Z,154.60
2024-04-10T08:56:21.118Z,156.48
2024-04-10T08:57:35.949Z,160.22
2024-04-10T08:58:21.112Z,154.72
2024-04-10T08:59:21.125Z,157.27
2024-04-10T09:00:21.174Z,162.20
2024-04-10T09:01:21.274Z,169.55
2024-04-10T09:02:21.122Z,178.48
2024-04-10T09:03:21.375Z,181.30
2024-04-10T09:04:21.261Z,180.35
2024-04-10T09:05:21.197Z,181.31
2024-04-10T09:06:21.174Z,181.03
2024-04-10T09:07:21.129Z,183.98
2024-04-10T09:08:21.141Z,186.95
2024-04-10T09:09:21.149Z,190.45
2024-04-10T09:10:21.187Z,194.25
2024-04-10T09:11:21.178Z,194.88
2024-04-10T09:12:21.158Z,196.75
2024-04-10T09:13:21.152Z,195.72
2024-04-10T09:14:21.138Z,191.79
2024-04-10T09:15:21.142Z,193.27
2024-04-10T09:16:22.007Z,194.99
2024-04-10T09:17:21.247Z,195.82
2024-04-10T09:18:21.176Z,196.53
2024-04-10T09:19:23.996Z,197.90
2024-04-10T09:20:21.163Z,197.93
2024-04-10T09:21:21.163Z,198.04
2024-04-10T09:22:42.170Z,198.84
2024-04-10T09:23:21.187Z,198.06
2024-04-10T09:24:21.172Z,198.05
2024-04-10T09:25:48.944Z,190.02
2024-04-10T09:26:21.279Z,197.92
2024-04-10T09:27:21.187Z,194.90
2024-04-10T09:28:21.174Z,191.29
2024-04-10T09:29:21.208Z,189.55
2024-04-10T09:30:21.191Z,187.88
2024-04-10T09:31:21.189Z,185.39
2024-04-10T09:32:21.275Z,184.00
2024-04-10T09:33:21.347Z,179.64
2024-04-10T09:34:21.358Z,175.02
2024-04-10T09:35:21.262Z,172.48
2024-04-10T09:36:21.204Z,168.24
2024-04-10T09:37:21.198Z,165.09
2024-04-10T09:38:21.253Z,158.57
2024-04-10T09:39:21.222Z,153.93
2024-04-10T09:40:21.200Z,149.68
2024-04-10T09:41:21.943Z,147.42
2024-04-10T09:42:21.209Z,144.63
2024-04-10T09:43:21.208Z,142.48
2024-04-10T09:44:35.953Z,139.30
2024-04-10T09:45:21.216Z,139.37
2024-04-10T09:46:21.239Z,136.92
2024-04-10T09:47:24.488Z,132.38
2024-04-10T09:48:21.380Z,131.84
2024-04-10T09:49:21.265Z,127.54
2024-04-10T09:50:42.257Z,125.00
2024-04-10T09:51:21.251Z,133.50
2024-04-10T09:52:21.237Z,130.08
2024-04-10T09:53:21.244Z,126.25
2024-04-10T09:54:21.226Z,124.41
2024-04-10T09:55:21.280Z,118.74
2024-04-10T09:56:21.317Z,117.80
2024-04-10T09:57:21.232Z,115.34
2024-04-10T09:58:21.247Z,111.32
2024-04-10T09:59:21.946Z,110.19
2024-04-10T10:00:21.239Z,106.36
2024-04-10T10:01:21.255Z,105.35
2024-04-10T10:02:21.385Z,102.25
2024-04-10T10:03:21.387Z,101.28
2024-04-10T10:04:21.283Z,99.13
2024-04-10T10:05:21.399Z,99.45
2024-04-10T10:06:21.320Z,96.87
2024-04-10T10:07:21.249Z,96.59
2024-04-10T10:08:21.305Z,95.58
2024-04-10T10:09:27.942Z,94.93
2024-04-10T10:10:21.258Z,94.97
2024-04-10T10:11:21.334Z,93.49
2024-04-10T10:12:28.780Z,90.84
2024-04-10T10:13:21.268Z,94.94
2024-04-10T10:14:21.269Z,92.37
2024-04-10T10:15:35.990Z,91.56
2024-04-10T10:16:21.480Z,94.61
2024-04-10T10:17:21.283Z,93.31
2024-04-10T10:19:21.405Z,95.00
2024-04-10T10:20:21.329Z,95.72
2024-04-10T10:21:21.299Z,98.02
2024-04-10T10:22:21.280Z,101.51
2024-04-10T10:23:21.312Z,112.23
2024-04-10T10:24:21.289Z,126.11
2024-04-10T10:25:21.292Z,131.05
2024-04-10T10:26:21.353Z,146.89
2024-04-10T10:27:21.293Z,156.22
2024-04-10T10:28:21.303Z,166.12
2024-04-10T10:29:21.336Z,170.46
2024-04-10T10:30:21.386Z,179.21
2024-04-10T10:31:21.304Z,185.34
2024-04-10T10:32:21.359Z,190.86
2024-04-10T10:33:21.603Z,196.56
2024-04-10T10:34:21.379Z,196.37
2024-04-10T10:35:21.390Z,194.61
2024-04-10T10:36:21.367Z,196.40
2024-04-10T10:37:35.952Z,197.16
2024-04-10T10:38:21.361Z,197.27
2024-04-10T10:39:21.315Z,197.73
2024-04-10T10:40:23.950Z,198.53
2024-04-10T10:41:21.400Z,197.36
2024-04-10T10:42:21.325Z,198.34
2024-04-10T10:43:48.948Z,199.91
2024-04-10T10:44:21.433Z,197.41
2024-04-10T10:45:21.328Z,199.19
2024-04-10T10:46:21.338Z,202.49
2024-04-10T10:47:21.422Z,208.62
2024-04-10T10:48:21.399Z,215.50
2024-04-10T10:49:21.367Z,209.41
2024-04-10T10:50:21.411Z,199.67
2024-04-10T10:51:21.350Z,197.07
2024-04-10T10:52:21.350Z,195.07
2024-04-10T10:53:21.376Z,194.17
2024-04-10T10:54:21.347Z,193.23
2024-04-10T10:55:21.353Z,193.39
2024-04-10T10:56:21.428Z,193.95
2024-04-10T10:57:21.377Z,192.89
2024-04-10T10:58:21.382Z,191.04
2024-04-10T10:59:21.486Z,188.95
2024-04-10T11:00:21.379Z,186.83
2024-04-10T11:01:21.465Z,184.73
2024-04-10T11:02:32.063Z,182.38
2024-04-10T11:03:27.942Z,182.48
2024-04-10T11:04:22.574Z,182.48
2024-04-10T11:05:42.450Z,182.52
2024-04-10T11:06:21.443Z,182.50
2024-04-10T11:07:21.389Z,182.81
2024-04-10T11:08:42.574Z,182.59
2024-04-10T11:09:21.389Z,182.51
2024-04-10T11:10:21.387Z,182.73
2024-04-10T11:11:48.546Z,182.38
2024-04-10T11:12:21.515Z,182.55
2024-04-10T11:13:21.406Z,183.88
2024-04-10T11:14:21.449Z,186.46
2024-04-10T11:15:21.405Z,192.51
2024-04-10T11:16:21.484Z,199.16
2024-04-10T11:17:21.655Z,198.59
2024-04-10T11:18:22.053Z,196.83
2024-04-10T11:19:24.115Z,194.99
2024-04-10T11:20:21.451Z,195.01
2024-04-10T11:21:21.420Z,192.44
2024-04-10T11:22:22.373Z,191.41
2024-04-10T11:23:21.570Z,187.92
2024-04-10T11:24:21.427Z,186.91
2024-04-10T11:25:21.419Z,186.64
2024-04-10T11:26:21.492Z,185.19
2024-04-10T11:27:21.491Z,184.78
2024-04-10T11:28:21.439Z,181.35
2024-04-10T11:29:21.514Z,179.32
2024-04-10T11:30:35.969Z,178.42
2024-04-10T11:31:21.580Z,178.50
2024-04-10T11:32:21.635Z,178.89
2024-04-10T11:33:36.620Z,178.63
2024-04-10T11:34:21.746Z,178.53
2024-04-10T11:35:21.674Z,178.93
2024-04-10T11:36:36.472Z,180.20
2024-04-10T11:37:21.613Z,178.65
2024-04-10T11:38:21.637Z,179.89
2024-04-10T11:39:21.620Z,181.34
2024-04-10T11:40:21.617Z,183.16
2024-04-10T11:41:21.652Z,184.72
2024-04-10T11:42:21.623Z,187.30
2024-04-10T11:43:21.635Z,188.65
2024-04-10T11:44:21.681Z,188.15
2024-04-10T11:45:21.628Z,187.86
2024-04-10T11:46:21.649Z,190.24
2024-04-10T11:47:21.739Z,185.68
2024-04-10T11:48:21.729Z,188.44
2024-04-10T11:49:21.694Z,189.54
2024-04-10T11:50:21.730Z,187.59
2024-04-10T11:51:21.635Z,188.06
2024-04-10T11:52:21.983Z,188.14
2024-04-10T11:53:21.691Z,187.67
2024-04-10T11:54:21.633Z,186.73
2024-04-10T11:55:36.503Z,185.29
2024-04-10T11:56:21.659Z,185.41
2024-04-10T11:57:21.642Z,185.50
2024-04-10T11:58:28.495Z,183.59
2024-04-10T11:59:21.668Z,182.62
2024-04-10T12:00:21.638Z,185.42
2024-04-10T12:01:42.689Z,185.30
2024-04-10T12:02:24.107Z,185.38
2024-04-10T12:03:21.716Z,185.31
2024-04-10T12:04:36.526Z,182.16
2024-04-10T12:05:21.758Z,185.37
2024-04-10T12:06:21.880Z,182.29
2024-04-10T12:07:21.673Z,180.18
2024-04-10T12:08:21.728Z,176.50
2024-04-10T12:09:21.662Z,174.70
2024-04-10T12:10:21.677Z,173.68
2024-04-10T12:11:21.771Z,170.53
2024-04-10T12:12:21.785Z,168.70
2024-04-10T12:13:21.672Z,167.89
2024-04-10T12:14:21.698Z,165.37
2024-04-10T12:15:21.671Z,163.30
2024-04-10T12:16:21.667Z,160.01
2024-04-10T12:17:21.851Z,156.48
2024-04-10T12:18:21.813Z,154.80
2024-04-10T12:19:21.729Z,152.98
2024-04-10T12:20:28.535Z,153.44
2024-04-10T12:21:21.685Z,153.56
2024-04-10T12:22:21.691Z,152.21
2024-04-10T12:23:36.557Z,149.76
2024-04-10T12:24:21.703Z,152.95
2024-04-10T12:25:21.728Z,148.83
2024-04-10T12:26:42.751Z,148.18
2024-04-10T12:27:21.709Z,153.51
2024-04-10T12:28:21.715Z,152.02
2024-04-10T12:29:42.757Z,151.41
2024-04-10T12:30:21.750Z,153.63
2024-04-10T12:31:21.731Z,154.55
2024-04-10T12:32:21.993Z,154.67
2024-04-10T12:33:21.865Z,156.59
2024-04-10T12:34:21.815Z,156.50
2024-04-10T12:35:21.805Z,154.74
2024-04-10T12:36:21.734Z,152.28
2024-04-10T12:37:21.736Z,149.21
2024-04-10T12:38:21.831Z,147.79
2024-04-10T12:39:21.730Z,144.26
2024-04-10T12:40:21.736Z,140.85